Sunday, December 17, 2017, 4:32 PM EST
Back to Local

KFRG, Farmingdale Republic Airport

Location: Farmingdale, NY, United States Lat: 40.733
Local Time: 4:32 PM EST (21:32 GMT) Lon: -73.417
Time Zone: US/Eastern Elev: 82 ft

Show me the last for .
Show Decoded

2017-12-17 15:53 METAR KFRG 172053Z 16003KT 10SM CLR 01/M04 A3026 RMK AO2 SLP246 T00111044 55001
                 =
2017-12-17 14:53 METAR KFRG 171953Z 00000KT 10SM CLR 01/M05 A3024 RMK AO2 SLP241 T00111050 =
2017-12-17 13:53 METAR KFRG 171853Z 00000KT 10SM FEW047 01/M06 A3024 RMK AO2 SLP242 T00061056 =
2017-12-17 12:53 METAR KFRG 171753Z 11003KT 10SM OVC045 01/M06 A3026 RMK AO2 SLP246 T00061056
                 10006 21017 58018 =
2017-12-17 11:53 METAR KFRG 171653Z 00000KT 10SM OVC045 00/M06 A3028 RMK AO2 SLP254 T00001061 =
2017-12-17 10:53 METAR KFRG 171553Z 00000KT 10SM OVC039 M01/M06 A3030 RMK AO2 SLP260 T10061061 =
2017-12-17 09:53 METAR KFRG 171453Z 13004KT 10SM OVC039 M01/M06 A3031 RMK AO2 SLP264 T10061061
                 51014 =
2017-12-17 08:53 METAR KFRG 171353Z 00000KT 10SM FEW039 OVC060 M01/M06 A3030 RMK AO2 SLP259
                 T10061061 =
2017-12-17 07:53 METAR KFRG 171253Z AUTO 00000KT 10SM OVC037 M01/M06 A3029 RMK AO2 SLP257
                 T10111056 =
2017-12-17 06:53 METAR KFRG 171153Z AUTO 06003KT 10SM FEW038 BKN065 M01/M07 A3027 RMK AO2 SLP250
                 T10111067 10011 21011 51006 =
2017-12-17 05:53 METAR KFRG 171053Z AUTO 05004KT 10SM OVC038 M01/M06 A3026 RMK AO2 SLP247
                 T10061061 =
2017-12-17 04:53 METAR KFRG 170953Z AUTO 02003KT 10SM OVC038 M01/M06 A3027 RMK AO2 SLP249
                 T10061056 =
2017-12-17 03:53 METAR KFRG 170853Z AUTO 06003KT 10SM OVC043 M01/M06 A3025 RMK AO2 SLP244
                 T10061056 51013 =
2017-12-17 02:53 METAR KFRG 170753Z AUTO 06004KT 10SM BKN036 OVC055 00/M06 A3025 RMK AO2 SLP244
                 T00001056 =
2017-12-17 01:53 METAR KFRG 170653Z AUTO 00000KT 10SM OVC035 01/M05 A3023 RMK AO2 SLP238
                 T00061050 =
2017-12-17 00:53 METAR KFRG 170553Z AUTO 00000KT 10SM OVC034 01/M05 A3021 RMK AO2 SLP231
                 T00111050 10033 20011 51014 =
2017-12-16 23:53 METAR KFRG 170453Z AUTO 35005KT 10SM FEW034 OVC060 01/M06 A3019 RMK AO2 SLP225
                 T00111056 400331067 =
2017-12-16 22:53 METAR KFRG 170353Z AUTO 33007KT 10SM OVC035 02/M06 A3020 RMK AO2 SLP227
                 T00171056 =
2017-12-16 21:53 METAR KFRG 170253Z 33007KT 10SM OVC036 02/M04 A3017 RMK AO2 SLP218 T00221044
                 51027 =
2017-12-16 20:53 METAR KFRG 170153Z 34006KT 10SM OVC037 02/M03 A3015 RMK AO2 SLP211 T00221033 =
2017-12-16 19:53 METAR KFRG 170053Z 32006KT 10SM OVC039 03/M03 A3013 RMK AO2 SLP203 T00281033 =
2017-12-16 18:53 METAR KFRG 162353Z 34004KT 10SM OVC043 03/M04 A3009 RMK AO2 SLP191 T00331039
                 10033 20022 53031 =
2017-12-16 17:53 METAR KFRG 162253Z 28008KT 10SM OVC044 03/M04 A3006 RMK AO2 SLP178 T00331039 =
2017-12-16 16:53 METAR KFRG 162153Z 27011KT 10SM OVC044 03/M04 A3003 RMK AO2 SLP168 T00331039 =

Support USWX by starting your Amazon purchase here.